Time;durP1;ratioP1;P1;durP2;ratioP2;P2;SDS_P1;SDS_P2;PMS_P1;PMS_P2;Temp;Humidity;BMP_temperature;BMP_pressure;BME280_temperature;BME280_humidity;BME280_pressure;Samples;Min_cycle;Max_cycle;Signal;HPM_P1;HPM_P2
2022/05/09 00:01:49;;;;;;;16.58;4.53;;;;;;;;;;5087321;28;20105;-81
2022/05/09 00:04:15;;;;;;;20.10;4.47;;;;;;;;;;5083420;27;20035;-81
2022/05/09 00:06:41;;;;;;;15.57;4.55;;;;;;;;;;5105933;27;20134;-79
2022/05/09 00:09:07;;;;;;;19.33;4.10;;;;;;;;;;5110410;27;20055;-81
2022/05/09 00:11:33;;;;;;;26.42;5.43;;;;;;;;;;5098325;27;20488;-80
2022/05/09 00:13:59;;;;;;;13.60;4.80;;;;;;;;;;5093126;27;20047;-81
2022/05/09 00:16:28;;;;;;;15.13;5.20;;;;;;;;;;5102164;27;20042;-80
2022/05/09 00:18:54;;;;;;;13.38;4.20;;;;;;;;;;5112279;27;20090;-80
2022/05/09 00:21:20;;;;;;;18.85;5.00;;;;;;;;;;5095441;27;20070;-78
2022/05/09 00:23:47;;;;;;;12.35;4.30;;;;;;;;;;5095090;27;20043;-78
2022/05/09 00:26:13;;;;;;;13.95;4.35;;;;;;;;;;5106548;28;20051;-78
2022/05/09 00:28:39;;;;;;;16.73;4.35;;;;;;;;;;5112644;27;20107;-78
2022/05/09 00:31:05;;;;;;;19.73;5.20;;;;;;;;;;5090364;27;20099;-78
2022/05/09 00:33:31;;;;;;;17.60;4.63;;;;;;;;;;5096561;27;20423;-78
2022/05/09 00:35:57;;;;;;;17.38;4.80;;;;;;;;;;5081055;27;20077;-80
2022/05/09 00:38:24;;;;;;;16.50;5.32;;;;;;;;;;5112489;27;20095;-79
2022/05/09 00:43:37;;;;;;;22.48;5.88;;;;;;;;;;5109032;27;20047;-80
2022/05/09 00:46:03;;;;;;;18.02;4.82;;;;;;;;;;5113727;27;20409;-81
2022/05/09 00:48:29;;;;;;;13.50;4.25;;;;;;;;;;5096952;27;20050;-80
2022/05/09 00:50:56;;;;;;;16.25;5.03;;;;;;;;;;5112188;27;20470;-80
2022/05/09 00:53:23;;;;;;;10.70;5.72;;;;;;;;;;5112858;27;20042;-80
2022/05/09 00:55:52;;;;;;;16.83;4.65;;;;;;;;;;5091351;27;20035;-81
2022/05/09 00:58:30;;;;;;;12.20;4.68;;;;;;;;;;5111937;27;20031;-82
2022/05/09 01:00:57;;;;;;;17.30;4.95;;;;;;;;;;5109730;27;20031;-82
2022/05/09 01:03:26;;;;;;;15.43;5.10;;;;;;;;;;5105867;28;20211;-81
2022/05/09 01:05:52;;;;;;;20.13;5.18;;;;;;;;;;5085586;27;20072;-81
2022/05/09 01:08:19;;;;;;;20.65;6.50;;;;;;;;;;5065810;28;20039;-81
2022/05/09 01:10:46;;;;;;;16.83;5.15;;;;;;;;;;5070443;28;20035;-82
2022/05/09 01:13:13;;;;;;;11.45;4.88;;;;;;;;;;5104834;27;20095;-81
2022/05/09 01:15:40;;;;;;;14.75;4.75;;;;;;;;;;5077039;27;20485;-81
2022/05/09 01:18:08;;;;;;;14.93;4.78;;;;;;;;;;5086794;28;20055;-82
2022/05/09 01:20:34;;;;;;;10.90;4.88;;;;;;;;;;5085413;28;20497;-81
2022/05/09 01:23:02;;;;;;;13.90;5.40;;;;;;;;;;5109451;28;20459;-81
2022/05/09 01:25:29;;;;;;;12.40;4.72;;;;;;;;;;5084256;28;20047;-80
2022/05/09 01:27:55;;;;;;;15.70;5.57;;;;;;;;;;5074829;28;20046;-81
2022/05/09 01:30:21;;;;;;;17.83;5.28;;;;;;;;;;5094247;28;20470;-82
2022/05/09 01:33:00;;;;;;;12.25;4.72;;;;;;;;;;5088966;28;20046;-82
2022/05/09 01:35:33;;;;;;;19.08;4.88;;;;;;;;;;5089956;28;20482;-80
2022/05/09 01:38:17;;;;;;;15.18;5.35;;;;;;;;;;5085455;28;20062;-80
2022/05/09 01:40:43;;;;;;;15.50;4.82;;;;;;;;;;5112466;28;20545;-79
2022/05/09 01:43:09;;;;;;;15.43;5.20;;;;;;;;;;5096116;28;20045;-80
2022/05/09 01:45:36;;;;;;;18.73;4.88;;;;;;;;;;5112373;28;20043;-80
2022/05/09 01:50:46;;;;;;;16.25;5.68;;;;;;;;;;5126477;28;20055;-81
2022/05/09 01:53:12;;;;;;;12.55;5.43;;;;;;;;;;5106355;28;20435;-82
2022/05/09 01:55:39;;;;;;;11.60;4.78;;;;;;;;;;5098767;28;20043;-81
2022/05/09 01:58:05;;;;;;;16.20;5.13;;;;;;;;;;5084426;28;20114;-81
2022/05/09 02:00:33;;;;;;;14.43;5.50;;;;;;;;;;5086598;28;20455;-80
2022/05/09 02:03:00;;;;;;;11.80;4.90;;;;;;;;;;5091254;28;20035;-81
2022/05/09 02:05:26;;;;;;;12.70;5.03;;;;;;;;;;5076220;28;20438;-79
2022/05/09 02:07:53;;;;;;;16.20;5.22;;;;;;;;;;5077124;28;20378;-80
2022/05/09 02:10:19;;;;;;;16.00;5.57;;;;;;;;;;5083729;28;20046;-80
2022/05/09 02:12:46;;;;;;;17.33;5.50;;;;;;;;;;5079864;28;20043;-80
2022/05/09 02:15:12;;;;;;;11.38;5.38;;;;;;;;;;5109848;28;20031;-83
2022/05/09 02:17:38;;;;;;;16.95;4.88;;;;;;;;;;5107182;28;20051;-79
2022/05/09 02:20:05;;;;;;;18.85;5.45;;;;;;;;;;5111471;28;20043;-80
2022/05/09 02:22:32;;;;;;;11.80;5.18;;;;;;;;;;5094504;28;20047;-80
2022/05/09 02:24:58;;;;;;;12.90;5.10;;;;;;;;;;5093032;27;20051;-79
2022/05/09 02:27:24;;;;;;;13.80;5.05;;;;;;;;;;5096482;27;20474;-78
2022/05/09 02:29:51;;;;;;;11.75;4.90;;;;;;;;;;5082920;27;20043;-79
2022/05/09 02:32:17;;;;;;;11.88;4.85;;;;;;;;;;5115438;27;20046;-80
2022/05/09 02:34:44;;;;;;;10.25;5.05;;;;;;;;;;5116335;27;20087;-79
2022/05/09 02:37:10;;;;;;;13.57;4.60;;;;;;;;;;5096479;27;20484;-81
2022/05/09 02:39:36;;;;;;;15.02;5.47;;;;;;;;;;5087779;28;20117;-79
2022/05/09 02:42:02;;;;;;;12.93;4.90;;;;;;;;;;5094778;27;20051;-79
2022/05/09 02:44:28;;;;;;;15.88;4.70;;;;;;;;;;5081889;27;20122;-80
2022/05/09 02:46:55;;;;;;;17.80;4.90;;;;;;;;;;5096438;27;20418;-79
2022/05/09 02:49:21;;;;;;;13.07;4.75;;;;;;;;;;5082221;27;20051;-80
2022/05/09 02:51:49;;;;;;;18.45;5.72;;;;;;;;;;5111263;27;20070;-80
2022/05/09 02:54:16;;;;;;;14.85;5.25;;;;;;;;;;5115336;27;20043;-81
2022/05/09 02:56:42;;;;;;;19.63;5.97;;;;;;;;;;5087966;28;20039;-80
2022/05/09 02:59:08;;;;;;;17.13;5.82;;;;;;;;;;5090999;27;20382;-81
2022/05/09 03:01:34;;;;;;;17.38;5.07;;;;;;;;;;5088693;27;20684;-79
2022/05/09 03:06:45;;;;;;;15.98;5.38;;;;;;;;;;5108326;27;20086;-79
2022/05/09 03:09:11;;;;;;;18.83;5.95;;;;;;;;;;5076295;28;20046;-80
2022/05/09 03:11:37;;;;;;;14.95;5.00;;;;;;;;;;5101082;27;20031;-80
2022/05/09 03:14:05;;;;;;;14.07;5.70;;;;;;;;;;5095339;27;20121;-80
2022/05/09 03:16:31;;;;;;;13.13;6.50;;;;;;;;;;5113227;27;20470;-80
2022/05/09 03:18:57;;;;;;;13.75;5.35;;;;;;;;;;5094102;27;20040;-80
2022/05/09 03:21:23;;;;;;;10.63;5.80;;;;;;;;;;5112866;27;20039;-80
2022/05/09 03:23:49;;;;;;;18.00;5.05;;;;;;;;;;5097605;27;20130;-81
2022/05/09 03:26:15;;;;;;;13.00;4.97;;;;;;;;;;5087681;27;20470;-83
2022/05/09 03:28:41;;;;;;;12.18;5.07;;;;;;;;;;5099544;27;20050;-79
2022/05/09 03:31:07;;;;;;;11.95;5.20;;;;;;;;;;5083207;28;20047;-79
2022/05/09 03:33:34;;;;;;;11.30;5.82;;;;;;;;;;5091481;27;20050;-79
2022/05/09 03:36:01;;;;;;;14.07;4.68;;;;;;;;;;5097035;27;20068;-80
2022/05/09 03:38:27;;;;;;;10.73;4.45;;;;;;;;;;5092820;28;20050;-80
2022/05/09 03:40:53;;;;;;;8.63;4.68;;;;;;;;;;5112645;27;21948;-81
2022/05/09 03:43:19;;;;;;;10.20;4.72;;;;;;;;;;5073792;27;20042;-81
2022/05/09 03:45:47;;;;;;;13.95;5.78;;;;;;;;;;5080813;27;20121;-80
2022/05/09 03:48:13;;;;;;;11.15;5.07;;;;;;;;;;5097757;27;20047;-81
2022/05/09 03:50:39;;;;;;;10.15;5.50;;;;;;;;;;5081162;27;20076;-80
2022/05/09 03:53:05;;;;;;;14.23;5.82;;;;;;;;;;5115547;27;20084;-81
2022/05/09 03:55:33;;;;;;;11.65;5.70;;;;;;;;;;5092501;27;20035;-81
2022/05/09 03:57:59;;;;;;;16.70;5.00;;;;;;;;;;5096558;27;20047;-81
2022/05/09 04:00:26;;;;;;;13.38;4.93;;;;;;;;;;5097511;27;20470;-81
2022/05/09 04:02:52;;;;;;;18.17;5.57;;;;;;;;;;5108962;28;20092;-80
2022/05/09 04:05:19;;;;;;;11.38;5.53;;;;;;;;;;5078056;28;20054;-82
2022/05/09 04:07:46;;;;;;;11.63;6.13;;;;;;;;;;5072758;28;20051;-79
2022/05/09 04:10:13;;;;;;;11.55;5.05;;;;;;;;;;5099745;27;20056;-81
2022/05/09 04:12:40;;;;;;;10.80;4.63;;;;;;;;;;5114566;27;20070;-80
2022/05/09 04:17:51;;;;;;;14.00;5.63;;;;;;;;;;5113997;27;20481;-81
2022/05/09 04:20:18;;;;;;;16.42;5.30;;;;;;;;;;5112477;27;20083;-83
2022/05/09 04:22:44;;;;;;;16.35;5.43;;;;;;;;;;5114914;27;20122;-79
2022/05/09 04:25:12;;;;;;;27.15;7.75;;;;;;;;;;5092912;27;20047;-80
2022/05/09 04:27:38;;;;;;;12.55;5.10;;;;;;;;;;5096130;27;20041;-80
2022/05/09 04:30:07;;;;;;;12.68;5.40;;;;;;;;;;5097400;27;20039;-79
2022/05/09 04:32:34;;;;;;;16.35;5.90;;;;;;;;;;5097080;27;20031;-80
2022/05/09 04:35:00;;;;;;;10.65;5.50;;;;;;;;;;5089448;27;20035;-80
2022/05/09 04:37:26;;;;;;;12.85;5.55;;;;;;;;;;5090657;27;20055;-81
2022/05/09 04:39:54;;;;;;;14.57;5.97;;;;;;;;;;5096308;27;20078;-80
2022/05/09 04:42:20;;;;;;;13.07;5.35;;;;;;;;;;5091269;27;20058;-83
2022/05/09 04:44:46;;;;;;;15.80;5.35;;;;;;;;;;5113032;27;20122;-82
2022/05/09 04:47:13;;;;;;;14.95;6.05;;;;;;;;;;5096512;27;20137;-84
2022/05/09 04:49:39;;;;;;;17.27;5.90;;;;;;;;;;5096707;27;20274;-80
2022/05/09 04:52:06;;;;;;;17.95;6.30;;;;;;;;;;5096355;27;20042;-81
2022/05/09 04:54:32;;;;;;;13.23;6.10;;;;;;;;;;5075761;27;20477;-81
2022/05/09 04:56:58;;;;;;;14.27;5.72;;;;;;;;;;5107688;27;20095;-82
2022/05/09 04:59:24;;;;;;;11.18;6.70;;;;;;;;;;5112199;28;20039;-82
2022/05/09 05:01:50;;;;;;;19.88;8.15;;;;;;;;;;5097393;27;20043;-81
2022/05/09 05:04:17;;;;;;;18.15;7.35;;;;;;;;;;5078315;27;20039;-81
2022/05/09 05:06:44;;;;;;;16.85;7.40;;;;;;;;;;5066864;28;20401;-81
2022/05/09 05:09:10;;;;;;;13.10;6.43;;;;;;;;;;5096641;27;20043;-81
2022/05/09 05:11:37;;;;;;;;;;;;;;;;;;5066621;28;20126;-81
2022/05/09 05:14:03;;;;;;;;;;;;;;;;;;5087390;28;19919;-81
2022/05/09 05:19:13;;;;;;;;;;;;;;;;;;5113686;28;19923;-81
2022/05/09 05:21:39;;;;;;;;;;;;;;;;;;5094825;28;19923;-82
2022/05/09 05:24:05;;;;;;;;;;;;;;;;;;5108891;28;20013;-80
2022/05/09 05:26:31;;;;;;;;;;;;;;;;;;5094128;28;20395;-80
2022/05/09 05:28:57;;;;;;;;;;;;;;;;;;5095426;28;20342;-81
2022/05/09 05:31:23;;;;;;;;;;;;;;;;;;5096640;28;19915;-84
2022/05/09 05:33:49;;;;;;;;;;;;;;;;;;5110676;28;20407;-82
2022/05/09 05:36:16;;;;;;;;;;;;;;;;;;5086859;28;19955;-81
2022/05/09 05:38:43;;;;;;;;;;;;;;;;;;5095100;28;19985;-82
2022/05/09 05:41:09;;;;;;;;;;;;;;;;;;5101806;28;19984;-81
2022/05/09 05:43:34;;;;;;;;;;;;;;;;;;5092741;28;20366;-81
2022/05/09 05:46:00;;;;;;;;;;;;;;;;;;5109679;28;19964;-81
2022/05/09 05:48:26;;;;;;;;;;;;;;;;;;5090812;28;19927;-83
2022/05/09 05:50:52;;;;;;;;;;;;;;;;;;5111401;28;20399;-82
2022/05/09 05:53:18;;;;;;;;;;;;;;;;;;5113082;28;20002;-82
2022/05/09 05:55:44;;;;;;;;;;;;;;;;;;5109653;28;20576;-82
2022/05/09 05:58:10;;;;;;;;;;;;;;;;;;5092307;28;19927;-83
2022/05/09 06:00:36;;;;;;;;;;;;;;;;;;5090672;27;19960;-83
2022/05/09 06:03:02;;;;;;;;;;;;;;;;;;5095174;27;19926;-80
2022/05/09 06:05:28;;;;;;;;;;;;;;;;;;5106646;28;19916;-80
2022/05/09 06:07:55;;;;;;;;;;;;;;;;;;5094887;27;20365;-81
2022/05/09 06:10:21;;;;;;;;;;;;;;;;;;5115696;27;19915;-83
2022/05/09 06:12:47;;;;;;;;;;;;;;;;;;5116889;27;20008;-82
2022/05/09 06:15:25;;;;;;;;;;;;;;;;;;5098182;27;20291;-81
2022/05/09 06:17:51;;;;;;;;;;;;;;;;;;5086225;28;20029;-81
2022/05/09 06:20:17;;;;;;;;;;;;;;;;;;5091661;28;20030;-82
2022/05/09 06:22:43;;;;;;;;;;;;;;;;;;5110809;28;19927;-80
2022/05/09 06:25:09;;;;;;;;;;;;;;;;;;5100730;28;20362;-81
2022/05/09 06:27:35;;;;;;;;;;;;;;;;;;5111967;28;20008;-80
2022/05/09 06:30:01;;;;;;;;;;;;;;;;;;5092585;28;19916;-81
2022/05/09 06:32:27;;;;;;;;;;;;;;;;;;5090572;28;19935;-83
2022/05/09 06:34:53;;;;;;;;;;;;;;;;;;5090693;28;19921;-82
2022/05/09 06:37:19;;;;;;;;;;;;;;;;;;5091395;28;20334;-83
2022/05/09 06:39:45;;;;;;;;;;;;;;;;;;5086061;28;19951;-82
2022/05/09 06:42:11;;;;;;;;;;;;;;;;;;5093191;28;20351;-82
2022/05/09 06:44:37;;;;;;;;;;;;;;;;;;5088371;28;19928;-81
2022/05/09 06:47:03;;;;;;;;;;;;;;;;;;5104003;28;20009;-80
2022/05/09 06:49:29;;;;;;;;;;;;;;;;;;5085932;28;20006;-83
2022/05/09 06:51:55;;;;;;;;;;;;;;;;;;5107433;28;19961;-81
2022/05/09 06:54:22;;;;;;;;;;;;;;;;;;5107455;28;19927;-82
2022/05/09 06:56:48;;;;;;;;;;;;;;;;;;5093572;28;19916;-82
2022/05/09 06:59:13;;;;;;;;;;;;;;;;;;5086512;28;19916;-81
2022/05/09 07:01:39;;;;;;;;;;;;;;;;;;5090082;28;19985;-81
2022/05/09 07:04:05;;;;;;;;;;;;;;;;;;5108231;28;19915;-81
2022/05/09 07:06:31;;;;;;;;;;;;;;;;;;5090872;28;20676;-83
2022/05/09 07:08:57;;;;;;;;;;;;;;;;;;5085948;28;19961;-81
2022/05/09 07:11:23;;;;;;;;;;;;;;;;;;5109494;28;19977;-82
2022/05/09 07:13:49;;;;;;;;;;;;;;;;;;5091778;28;19915;-82
2022/05/09 07:16:17;;;;;;;;;;;;;;;;;;5088324;28;19920;-83
2022/05/09 07:18:43;;;;;;;;;;;;;;;;;;5089913;28;19920;-82
2022/05/09 07:21:09;;;;;;;;;;;;;;;;;;5087865;28;19969;-81
2022/05/09 07:23:35;;;;;;;;;;;;;;;;;;5069843;28;19916;-81
2022/05/09 07:26:02;;;;;;;;;;;;;;;;;;5085396;28;19981;-81
2022/05/09 07:28:28;;;;;;;;;;;;;;;;;;5084325;28;20270;-81
2022/05/09 07:30:55;;;;;;;;;;;;;;;;;;5065356;28;19928;-83
2022/05/09 07:33:21;;;;;;;;;;;;;;;;;;5071442;28;19917;-81
2022/05/09 07:35:47;;;;;;;;;;;;;;;;;;5071207;28;19920;-82
2022/05/09 07:38:13;;;;;;;;;;;;;;;;;;5072649;28;19946;-80
2022/05/09 07:40:40;;;;;;;;;;;;;;;;;;5085156;28;19920;-81
2022/05/09 07:43:06;;;;;;;;;;;;;;;;;;5088167;28;20097;-81
2022/05/09 07:45:32;;;;;;;;;;;;;;;;;;5087079;28;19999;-82
2022/05/09 07:47:58;;;;;;;;;;;;;;;;;;5072895;28;19924;-81
2022/05/09 07:50:25;;;;;;;;;;;;;;;;;;5071273;28;19915;-82
2022/05/09 07:52:51;;;;;;;;;;;;;;;;;;5069493;28;19920;-82
2022/05/09 07:55:17;;;;;;;;;;;;;;;;;;5066109;28;20002;-83
2022/05/09 07:57:43;;;;;;;;;;;;;;;;;;5085581;28;19927;-82
2022/05/09 08:00:10;;;;;;;;;;;;;;;;;;5080572;28;19916;-82
2022/05/09 08:02:36;;;;;;;;;;;;;;;;;;5061191;28;19916;-82
2022/05/09 08:05:04;;;;;;;;;;;;;;;;;;5085971;28;19926;-83
2022/05/09 08:07:30;;;;;;;;;;;;;;;;;;5071812;28;19916;-82
2022/05/09 08:09:56;;;;;;;;;;;;;;;;;;5066662;28;19931;-77
2022/05/09 08:12:22;;;;;;;;;;;;;;;;;;5080206;28;19916;-81
2022/05/09 08:14:48;;;;;;;;;;;;;;;;;;5090100;28;19916;-84
2022/05/09 08:17:14;;;;;;;;;;;;;;;;;;5062673;28;19962;-83
2022/05/09 08:19:41;;;;;;;;;;;;;;;;;;5067678;28;19916;-83
2022/05/09 08:22:10;;;;;;;;;;;;;;;;;;5072011;28;19920;-83
2022/05/09 08:24:36;;;;;;;;;;;;;;;;;;5071340;28;19923;-82
2022/05/09 08:27:02;;;;;;;;;;;;;;;;;;5087746;28;20420;-82
2022/05/09 08:29:28;;;;;;;;;;;;;;;;;;5072525;28;19938;-82
2022/05/09 08:31:54;;;;;;;;;;;;;;;;;;5085036;28;19963;-85
2022/05/09 08:34:20;;;;;;;;;;;;;;;;;;5067722;28;19916;-86
2022/05/09 08:36:46;;;;;;;;;;;;;;;;;;5068238;28;20011;-86
2022/05/09 08:39:12;;;;;;;;;;;;;;;;;;5072659;28;20754;-83
2022/05/09 08:41:38;;;;;;;;;;;;;;;;;;5072310;28;20286;-83
2022/05/09 08:44:04;;;;;;;;;;;;;;;;;;5089507;28;20014;-83
2022/05/09 08:46:30;;;;;;;;;;;;;;;;;;5073200;28;19923;-83
2022/05/09 08:48:56;;;;;;;;;;;;;;;;;;5089750;28;19920;-82
2022/05/09 08:51:22;;;;;;;;;;;;;;;;;;5088109;28;19927;-83
2022/05/09 08:53:48;;;;;;;;;;;;;;;;;;5072404;28;19932;-84
2022/05/09 08:56:14;;;;;;;;;;;;;;;;;;5069378;28;20366;-85
2022/05/09 08:58:40;;;;;;;;;;;;;;;;;;5073262;28;20291;-83
2022/05/09 09:01:06;;;;;;;;;;;;;;;;;;5073097;28;19929;-86
2022/05/09 09:03:32;;;;;;;;;;;;;;;;;;5088966;28;19927;-82
2022/05/09 09:05:58;;;;;;;;;;;;;;;;;;5086755;28;19920;-81
2022/05/09 09:08:24;;;;;;;;;;;;;;;;;;5068787;28;19916;-85
2022/05/09 09:10:50;;;;;;;;;;;;;;;;;;5087576;28;20355;-81
2022/05/09 09:13:20;;;;;;;;;;;;;;;;;;5070312;28;19923;-82
2022/05/09 09:15:45;;;;;;;;;;;;;;;;;;5070429;28;19916;-82
2022/05/09 09:18:11;;;;;;;;;;;;;;;;;;5082528;28;19923;-81
2022/05/09 09:20:37;;;;;;;;;;;;;;;;;;5092134;28;19916;-81
2022/05/09 09:23:04;;;;;;;;;;;;;;;;;;5091869;28;20660;-82
2022/05/09 09:25:30;;;;;;;;;;;;;;;;;;5082137;28;19927;-81
2022/05/09 09:27:56;;;;;;;;;;;;;;;;;;5088957;28;19916;-83
2022/05/09 09:30:22;;;;;;;;;;;;;;;;;;5086335;28;19916;-86
2022/05/09 09:32:48;;;;;;;;;;;;;;;;;;5090929;28;20002;-87
2022/05/09 09:35:14;;;;;;;;;;;;;;;;;;5094233;28;20265;-86
2022/05/09 09:37:40;;;;;;;;;;;;;;;;;;5113244;28;19916;-84
2022/05/09 09:40:06;;;;;;;;;;;;;;;;;;5097144;28;19969;-85
2022/05/09 09:42:32;;;;;;;;;;;;;;;;;;5113926;28;19959;-84
2022/05/09 09:45:03;;;;;;;;;;;;;;;;;;5097015;28;19923;-85
2022/05/09 09:47:29;;;;;;;;;;;;;;;;;;5112917;28;19923;-83
2022/05/09 09:49:55;;;;;;;;;;;;;;;;;;5111201;28;20266;-84
2022/05/09 09:52:21;;;;;;;;;;;;;;;;;;5113518;28;19916;-84
2022/05/09 09:54:47;;;;;;;;;;;;;;;;;;5112748;28;19915;-85
2022/05/09 09:57:13;;;;;;;;;;;;;;;;;;5112596;28;19964;-83
2022/05/09 09:59:39;;;;;;;;;;;;;;;;;;5094573;28;19926;-82
2022/05/09 10:02:05;;;;;;;;;;;;;;;;;;5086383;28;19916;-83
2022/05/09 10:04:31;;;;;;;;;;;;;;;;;;5109801;28;19964;-80
2022/05/09 10:06:59;;;;;;;;;;;;;;;;;;5081520;28;20282;-85
2022/05/09 10:09:25;;;;;;;;;;;;;;;;;;5094782;28;19930;-83
2022/05/09 10:11:51;;;;;;;;;;;;;;;;;;5089859;28;19915;-88
2022/05/09 10:14:17;;;;;;;;;;;;;;;;;;5083149;28;19938;-86
2022/05/09 10:16:45;;;;;;;;;;;;;;;;;;5092434;27;19923;-86
2022/05/09 10:19:11;;;;;;;;;;;;;;;;;;5100365;27;19915;-86
2022/05/09 10:27:07;;;;;;;;;;;;;;;;;;5115847;27;20017;-80
2022/05/09 10:29:33;;;;;;;;;;;;;;;;;;5111503;27;20405;-83
2022/05/09 10:31:59;;;;;;;;;;;;;;;;;;5096319;27;20025;-82
2022/05/09 10:34:26;;;;;;;;;;;;;;;;;;5116299;27;19919;-84
2022/05/09 10:36:52;;;;;;;;;;;;;;;;;;5098209;27;19916;-82
2022/05/09 10:39:18;;;;;;;;;;;;;;;;;;5085862;28;19919;-82
2022/05/09 10:41:44;;;;;;;;;;;;;;;;;;5095224;27;19916;-85
2022/05/09 10:44:10;;;;;;;;;;;;;;;;;;5094507;27;19915;-83
2022/05/09 10:46:36;;;;;;;;;;;;;;;;;;5111188;27;19922;-82
2022/05/09 10:49:02;;;;;;;;;;;;;;;;;;5097992;27;19916;-83
2022/05/09 10:51:28;;;;;;;;;;;;;;;;;;5108973;27;20239;-89
2022/05/09 10:53:54;;;;;;;;;;;;;;;;;;5093480;27;19922;-88
2022/05/09 10:56:20;;;;;;;;;;;;;;;;;;5114307;27;19919;-83
2022/05/09 10:58:46;;;;;;;;;;;;;;;;;;5080635;27;20258;-81
2022/05/09 11:01:12;;;;;;;;;;;;;;;;;;5116502;27;19930;-82
2022/05/09 11:03:39;;;;;;;;;;;;;;;;;;5096718;27;19923;-81
2022/05/09 11:06:05;;;;;;;;;;;;;;;;;;5096406;27;19923;-83
2022/05/09 11:08:31;;;;;;;;;;;;;;;;;;5116068;27;19975;-84
2022/05/09 11:10:57;;;;;;;;;;;;;;;;;;5115970;27;19926;-83
2022/05/09 11:13:23;;;;;;;;;;;;;;;;;;5095283;27;20392;-84
2022/05/09 11:15:49;;;;;;;;;;;;;;;;;;5089002;28;20350;-86
2022/05/09 11:18:15;;;;;;;;;;;;;;;;;;5077967;28;20020;-81
2022/05/09 11:20:41;;;;;;;;;;;;;;;;;;5081074;28;20008;-88
2022/05/09 11:23:07;;;;;;;;;;;;;;;;;;5129865;27;19975;-82
2022/05/09 11:25:33;;;;;;;;;;;;;;;;;;5095544;28;19926;-88
2022/05/09 11:27:59;;;;;;;;;;;;;;;;;;5095841;28;19916;-83
2022/05/09 11:30:24;;;;;;;;;;;;;;;;;;5111679;28;19915;-80
2022/05/09 11:32:50;;;;;;;;;;;;;;;;;;5095929;28;19923;-92
2022/05/09 11:35:17;;;;;;;;;;;;;;;;;;5084897;28;19938;-86
2022/05/09 11:37:42;;;;;;;;;;;;;;;;;;5112236;28;19935;-89
2022/05/09 11:40:09;;;;;;;;;;;;;;;;;;5096690;28;19923;-89
2022/05/09 11:45:20;;;;;;;;;;;;;;;;;;5110537;28;19922;-89
2022/05/09 11:47:46;;;;;;;;;;;;;;;;;;5111754;28;20325;-83
2022/05/09 11:50:12;;;;;;;;;;;;;;;;;;5109579;28;20060;-87
2022/05/09 11:52:38;;;;;;;;;;;;;;;;;;5094978;28;20002;-84
2022/05/09 11:55:04;;;;;;;;;;;;;;;;;;5111411;28;20262;-83
2022/05/09 11:57:30;;;;;;;;;;;;;;;;;;5110016;28;19922;-83
2022/05/09 11:59:56;;;;;;;;;;;;;;;;;;5094093;28;19928;-84
2022/05/09 12:02:22;;;;;;;;;;;;;;;;;;5091844;28;20292;-78
2022/05/09 12:04:48;;;;;;;;;;;;;;;;;;5099753;28;19922;-77
2022/05/09 12:07:14;;;;;;;;;;;;;;;;;;5099192;27;19934;-77
2022/05/09 12:09:40;;;;;;;;;;;;;;;;;;5097134;28;20395;-79
2022/05/09 12:12:06;;;;;;;;;;;;;;;;;;5089227;28;19970;-78
2022/05/09 12:14:32;;;;;;;;;;;;;;;;;;5110463;27;19963;-81
2022/05/09 12:16:58;;;;;;;;;;;;;;;;;;5095313;27;19916;-78
2022/05/09 12:19:24;;;;;;;;;;;;;;;;;;5113674;27;19915;-80
2022/05/09 12:21:50;;;;;;;;;;;;;;;;;;5111371;27;19919;-81
2022/05/09 12:24:19;;;;;;;;;;;;;;;;;;5113901;27;19922;-86
2022/05/09 12:26:45;;;;;;;;;;;;;;;;;;5095733;27;19916;-82
2022/05/09 12:29:11;;;;;;;;;;;;;;;;;;5101953;27;19924;-81
2022/05/09 12:31:37;;;;;;;;;;;;;;;;;;5102027;28;20044;-82
2022/05/09 12:34:03;;;;;;;;;;;;;;;;;;5098068;27;19927;-78
2022/05/09 12:36:29;;;;;;;;;;;;;;;;;;5113020;27;20346;-84
2022/05/09 12:38:55;;;;;;;;;;;;;;;;;;5087402;27;19922;-84
2022/05/09 12:41:21;;;;;;;;;;;;;;;;;;5105706;27;21745;-79
2022/05/09 12:43:49;;;;;;;;;;;;;;;;;;5109597;27;20258;-84
2022/05/09 12:46:15;;;;;;;;;;;;;;;;;;5113711;27;20146;-84
2022/05/09 12:48:41;;;;;;;;;;;;;;;;;;5081963;27;19938;-86
2022/05/09 12:51:07;;;;;;;;;;;;;;;;;;5103821;27;19972;-86
2022/05/09 12:53:33;;;;;;;;;;;;;;;;;;5092091;28;20011;-85
2022/05/09 12:55:59;;;;;;;;;;;;;;;;;;5088513;27;20031;-86
2022/05/09 12:58:25;;;;;;;;;;;;;;;;;;5096458;27;19964;-87
2022/05/09 13:00:51;;;;;;;;;;;;;;;;;;5078904;28;20362;-85
2022/05/09 13:03:17;;;;;;;;;;;;;;;;;;5094675;27;19920;-87
2022/05/09 13:05:43;;;;;;;;;;;;;;;;;;5091279;28;19927;-79
2022/05/09 13:08:09;;;;;;;;;;;;;;;;;;5101309;27;20346;-81
2022/05/09 13:10:35;;;;;;;;;;;;;;;;;;5114508;27;19946;-81
2022/05/09 13:13:01;;;;;;;;;;;;;;;;;;5095787;27;20377;-81
2022/05/09 13:15:27;;;;;;;;;;;;;;;;;;5097273;28;20312;-81
2022/05/09 13:17:53;;;;;;;;;;;;;;;;;;5113835;28;19971;-81
2022/05/09 13:20:19;;;;;;;;;;;;;;;;;;5092155;28;19931;-82
2022/05/09 13:22:45;;;;;;;;;;;;;;;;;;5105596;28;19916;-81
2022/05/09 13:25:11;;;;;;;;;;;;;;;;;;5097757;28;19929;-83
2022/05/09 13:27:37;;;;;;;;;;;;;;;;;;5084103;28;19916;-79
2022/05/09 13:30:04;;;;;;;;;;;;;;;;;;5110504;28;19919;-82
2022/05/09 13:32:32;;;;;;;;;;;;;;;;;;5094678;28;19915;-85
2022/05/09 13:34:58;;;;;;;;;;;;;;;;;;5094565;28;19935;-84
2022/05/09 13:37:24;;;;;;;;;;;;;;;;;;5087772;28;19959;-87
2022/05/09 13:39:50;;;;;;;;;;;;;;;;;;5084677;28;19915;-76
2022/05/09 13:42:17;;;;;;;;;;;;;;;;;;5125109;28;19915;-81
2022/05/09 13:44:43;;;;;;;;;;;;;;;;;;5097136;28;20375;-79
2022/05/09 13:47:09;;;;;;;;;;;;;;;;;;5112290;28;19915;-76
2022/05/09 13:49:34;;;;;;;;;;;;;;;;;;5129014;28;20335;-78
2022/05/09 13:52:01;;;;;;;;;;;;;;;;;;5096402;28;19915;-81
2022/05/09 13:54:27;;;;;;;;;;;;;;;;;;5097319;28;19916;-83
2022/05/09 13:56:53;;;;;;;;;;;;;;;;;;5092961;28;19979;-81
2022/05/09 13:59:19;;;;;;;;;;;;;;;;;;5094683;28;19915;-82
2022/05/09 14:01:44;;;;;;;;;;;;;;;;;;5105941;28;20019;-82
2022/05/09 14:04:10;;;;;;;;;;;;;;;;;;5106486;28;19919;-80
2022/05/09 14:06:36;;;;;;;;;;;;;;;;;;5088542;28;19915;-78
2022/05/09 14:09:02;;;;;;;;;;;;;;;;;;5090774;28;19919;-78
2022/05/09 14:11:28;;;;;;;;;;;;;;;;;;5111848;28;20407;-77
2022/05/09 14:13:54;;;;;;;;;;;;;;;;;;5107927;28;20056;-76
2022/05/09 14:16:22;;;;;;;;;;;;;;;;;;5081917;28;19923;-77
2022/05/09 14:18:48;;;;;;;;;;;;;;;;;;5095393;28;19915;-76
2022/05/09 14:21:14;;;;;;;;;;;;;;;;;;5129100;27;19919;-77
2022/05/09 14:23:45;;;;;;;;;;;;;;;;;;5113873;27;19915;-76
2022/05/09 14:31:41;;;;;;;;;;;;;;;;;;5113145;27;19945;-76
2022/05/09 14:34:07;;;;;;;;;;;;;;;;;;5115241;27;19962;-77
2022/05/09 14:36:33;;;;;;;;;;;;;;;;;;5115452;27;19951;-79
2022/05/09 14:38:59;;;;;;;;;;;;;;;;;;5117268;27;19921;-79
2022/05/09 14:41:37;;;;;;;;;;;;;;;;;;5117267;27;19919;-79
2022/05/09 14:44:03;;;;;;;;;;;;;;;;;;5099648;27;19923;-79
2022/05/09 14:46:29;;;;;;;;;;;;;;;;;;5114789;27;19967;-79
2022/05/09 14:48:55;;;;;;;;;;;;;;;;;;5103169;27;19919;-79
2022/05/09 14:51:21;;;;;;;;;;;;;;;;;;5099784;27;19916;-80
2022/05/09 14:53:47;;;;;;;;;;;;;;;;;;5098955;27;19915;-80
2022/05/09 14:58:58;;;;;;;;;;;;;;;;;;5115901;27;19994;-80
2022/05/09 15:01:27;;;;;;;;;;;;;;;;;;5115188;27;19923;-79
2022/05/09 15:03:53;;;;;;;;;;;;;;;;;;5115867;27;20381;-79
2022/05/09 15:06:19;;;;;;;;;;;;;;;;;;5097250;27;19915;-78
2022/05/09 15:08:45;;;;;;;;;;;;;;;;;;5117506;27;19915;-76
2022/05/09 15:11:11;;;;;;;;;;;;;;;;;;5108747;27;19915;-77
2022/05/09 15:13:39;;;;;;;;;;;;;;;;;;5116418;27;19915;-76
2022/05/09 15:16:05;;;;;;;;;;;;;;;;;;5115378;27;19923;-76
2022/05/09 15:18:31;;;;;;;;;;;;;;;;;;5113729;27;19915;-78
2022/05/09 15:20:57;;;;;;;;;;;;;;;;;;5113628;27;19915;-77
2022/05/09 15:23:23;;;;;;;;;;;;;;;;;;5113149;27;19954;-77
2022/05/09 15:25:49;;;;;;;;;;;;;;;;;;5112872;27;19980;-77
2022/05/09 15:28:15;;;;;;;;;;;;;;;;;;5116039;27;19915;-77
2022/05/09 15:30:41;;;;;;;;;;;;;;;;;;5133481;27;19915;-76
2022/05/09 15:33:07;;;;;;;;;;;;;;;;;;5133165;27;19919;-77
2022/05/09 15:35:33;;;;;;;;;;;;;;;;;;5114455;27;20342;-76
2022/05/09 15:38:01;;;;;;;;;;;;;;;;;;5112514;27;20295;-77
2022/05/09 15:40:27;;;;;;;;;;;;;;;;;;5114386;27;19938;-76
2022/05/09 15:42:53;;;;;;;;;;;;;;;;;;5114751;27;20357;-77
2022/05/09 15:45:19;;;;;;;;;;;;;;;;;;5114097;27;20370;-76
2022/05/09 15:47:45;;;;;;;;;;;;;;;;;;5114913;27;19965;-76
2022/05/09 15:50:11;;;;;;;;;;;;;;;;;;5131394;27;19916;-77
2022/05/09 15:52:37;;;;;;;;;;;;;;;;;;5113022;27;20012;-77
2022/05/09 15:55:03;;;;;;;;;;;;;;;;;;5113940;27;19919;-77
2022/05/09 15:57:29;;;;;;;;;;;;;;;;;;5097247;27;20012;-82
2022/05/09 15:59:56;;;;;;;;;;;;;;;;;;5110799;27;19938;-84
2022/05/09 16:02:22;;;;;;;;;;;;;;;;;;5114984;27;20383;-79
2022/05/09 16:04:48;;;;;;;;;;;;;;;;;;5130850;27;19958;-78
2022/05/09 16:12:43;;;;;;;;;;;;;;;;;;5113315;27;19975;-82
2022/05/09 16:15:10;;;;;;;;;;;;;;;;;;5098414;27;19919;-81
2022/05/09 16:17:36;;;;;;;;;;;;;;;;;;5096785;27;19916;-80
2022/05/09 16:20:02;;;;;;;;;;;;;;;;;;5112752;27;20032;-79
2022/05/09 16:22:28;;;;;;;;;;;;;;;;;;5113992;27;19953;-81
2022/05/09 16:24:54;;;;;;;;;;;;;;;;;;5098150;27;19922;-80
2022/05/09 16:27:20;;;;;;;;;;;;;;;;;;5097838;27;19915;-81
2022/05/09 16:29:46;;;;;;;;;;;;;;;;;;5114843;27;19926;-81